sensor_id;sensor_type;location;lat;lon;timestamp;P1;durP1;ratioP1;P2;durP2;ratioP2
36423;SDS011;22458;45.328;9.514;2022-12-29T00:02:18;50.58;;;28.70;;
36423;SDS011;22458;45.328;9.514;2022-12-29T00:04:43;49.83;;;28.13;;
36423;SDS011;22458;45.328;9.514;2022-12-29T00:07:09;51.17;;;28.52;;
36423;SDS011;22458;45.328;9.514;2022-12-29T00:09:36;54.03;;;28.75;;
36423;SDS011;22458;45.328;9.514;2022-12-29T00:12:02;45.92;;;26.77;;
36423;SDS011;22458;45.328;9.514;2022-12-29T00:14:29;47.72;;;27.02;;
36423;SDS011;22458;45.328;9.514;2022-12-29T00:17:13;53.40;;;28.35;;
36423;SDS011;22458;45.328;9.514;2022-12-29T00:19:39;50.25;;;27.70;;
36423;SDS011;22458;45.328;9.514;2022-12-29T00:22:24;47.50;;;26.60;;
36423;SDS011;22458;45.328;9.514;2022-12-29T00:25:09;52.10;;;28.42;;
36423;SDS011;22458;45.328;9.514;2022-12-29T00:27:54;50.85;;;27.38;;
36423;SDS011;22458;45.328;9.514;2022-12-29T00:30:39;50.13;;;28.73;;
36423;SDS011;22458;45.328;9.514;2022-12-29T00:33:26;50.38;;;26.67;;
36423;SDS011;22458;45.328;9.514;2022-12-29T00:36:33;55.40;;;28.20;;
36423;SDS011;22458;45.328;9.514;2022-12-29T00:39:08;51.15;;;29.05;;
36423;SDS011;22458;45.328;9.514;2022-12-29T00:41:56;50.67;;;27.05;;
36423;SDS011;22458;45.328;9.514;2022-12-29T00:45:02;53.90;;;27.25;;
36423;SDS011;22458;45.328;9.514;2022-12-29T00:47:29;54.90;;;28.50;;
36423;SDS011;22458;45.328;9.514;2022-12-29T00:49:54;54.95;;;28.48;;
36423;SDS011;22458;45.328;9.514;2022-12-29T00:52:20;54.75;;;29.58;;
36423;SDS011;22458;45.328;9.514;2022-12-29T00:54:46;53.30;;;27.63;;
36423;SDS011;22458;45.328;9.514;2022-12-29T00:57:12;50.92;;;27.33;;
36423;SDS011;22458;45.328;9.514;2022-12-29T00:59:38;55.10;;;27.58;;
36423;SDS011;22458;45.328;9.514;2022-12-29T01:02:05;50.72;;;27.50;;
36423;SDS011;22458;45.328;9.514;2022-12-29T01:04:32;51.40;;;27.38;;
36423;SDS011;22458;45.328;9.514;2022-12-29T01:06:58;54.08;;;28.38;;
36423;SDS011;22458;45.328;9.514;2022-12-29T01:09:23;51.03;;;28.08;;
36423;SDS011;22458;45.328;9.514;2022-12-29T01:12:08;49.70;;;27.30;;
36423;SDS011;22458;45.328;9.514;2022-12-29T01:14:36;48.17;;;26.38;;
36423;SDS011;22458;45.328;9.514;2022-12-29T01:17:02;46.42;;;27.40;;
36423;SDS011;22458;45.328;9.514;2022-12-29T01:19:28;52.83;;;28.08;;
36423;SDS011;22458;45.328;9.514;2022-12-29T01:21:55;49.20;;;27.58;;
36423;SDS011;22458;45.328;9.514;2022-12-29T01:24:21;50.42;;;27.52;;
36423;SDS011;22458;45.328;9.514;2022-12-29T01:26:46;48.58;;;28.40;;
36423;SDS011;22458;45.328;9.514;2022-12-29T01:29:15;49.93;;;29.47;;
36423;SDS011;22458;45.328;9.514;2022-12-29T01:31:44;53.47;;;27.60;;
36423;SDS011;22458;45.328;9.514;2022-12-29T01:34:10;51.17;;;27.20;;
36423;SDS011;22458;45.328;9.514;2022-12-29T01:36:37;45.97;;;26.33;;
36423;SDS011;22458;45.328;9.514;2022-12-29T01:39:02;55.30;;;29.58;;
36423;SDS011;22458;45.328;9.514;2022-12-29T01:41:28;50.05;;;28.20;;
36423;SDS011;22458;45.328;9.514;2022-12-29T01:43:55;50.00;;;27.02;;
36423;SDS011;22458;45.328;9.514;2022-12-29T01:51:38;48.67;;;27.17;;
36423;SDS011;22458;45.328;9.514;2022-12-29T01:54:08;52.65;;;27.58;;
36423;SDS011;22458;45.328;9.514;2022-12-29T01:56:37;55.60;;;29.33;;
36423;SDS011;22458;45.328;9.514;2022-12-29T01:59:05;56.45;;;29.58;;
36423;SDS011;22458;45.328;9.514;2022-12-29T02:01:36;51.80;;;28.05;;
36423;SDS011;22458;45.328;9.514;2022-12-29T02:04:02;50.55;;;28.98;;
36423;SDS011;22458;45.328;9.514;2022-12-29T02:06:31;53.30;;;28.83;;
36423;SDS011;22458;45.328;9.514;2022-12-29T02:09:02;50.92;;;27.10;;
36423;SDS011;22458;45.328;9.514;2022-12-29T02:11:28;50.95;;;28.70;;
36423;SDS011;22458;45.328;9.514;2022-12-29T02:13:55;51.47;;;28.63;;
36423;SDS011;22458;45.328;9.514;2022-12-29T02:35:54;50.13;;;26.58;;
36423;SDS011;22458;45.328;9.514;2022-12-29T02:41:05;52.95;;;29.17;;
36423;SDS011;22458;45.328;9.514;2022-12-29T02:43:39;52.92;;;29.50;;
36423;SDS011;22458;45.328;9.514;2022-12-29T02:51:58;55.95;;;28.48;;
36423;SDS011;22458;45.328;9.514;2022-12-29T02:54:32;51.97;;;27.73;;
36423;SDS011;22458;45.328;9.514;2022-12-29T02:59:47;49.70;;;28.17;;
36423;SDS011;22458;45.328;9.514;2022-12-29T03:05:16;53.72;;;28.65;;
36423;SDS011;22458;45.328;9.514;2022-12-29T03:10:15;51.08;;;27.65;;
36423;SDS011;22458;45.328;9.514;2022-12-29T03:13:03;49.28;;;27.63;;
36423;SDS011;22458;45.328;9.514;2022-12-29T03:18:44;53.50;;;29.38;;
36423;SDS011;22458;45.328;9.514;2022-12-29T03:21:15;56.70;;;27.98;;
36423;SDS011;22458;45.328;9.514;2022-12-29T03:24:22;53.47;;;28.00;;
36423;SDS011;22458;45.328;9.514;2022-12-29T03:26:56;51.42;;;30.15;;
36423;SDS011;22458;45.328;9.514;2022-12-29T03:29:27;51.25;;;28.10;;
36423;SDS011;22458;45.328;9.514;2022-12-29T03:31:58;53.35;;;26.90;;
36423;SDS011;22458;45.328;9.514;2022-12-29T03:34:27;51.10;;;27.40;;
36423;SDS011;22458;45.328;9.514;2022-12-29T03:37:05;48.50;;;27.42;;
36423;SDS011;22458;45.328;9.514;2022-12-29T03:39:35;54.85;;;29.15;;
36423;SDS011;22458;45.328;9.514;2022-12-29T03:42:03;49.47;;;27.20;;
36423;SDS011;22458;45.328;9.514;2022-12-29T03:44:35;49.83;;;28.50;;
36423;SDS011;22458;45.328;9.514;2022-12-29T03:47:03;47.78;;;26.65;;
36423;SDS011;22458;45.328;9.514;2022-12-29T03:49:30;50.17;;;27.10;;
36423;SDS011;22458;45.328;9.514;2022-12-29T03:51:56;49.55;;;28.48;;
36423;SDS011;22458;45.328;9.514;2022-12-29T03:54:22;52.05;;;27.98;;
36423;SDS011;22458;45.328;9.514;2022-12-29T03:56:48;49.50;;;27.20;;
36423;SDS011;22458;45.328;9.514;2022-12-29T03:59:19;48.75;;;28.63;;
36423;SDS011;22458;45.328;9.514;2022-12-29T04:01:45;54.08;;;28.95;;
36423;SDS011;22458;45.328;9.514;2022-12-29T04:04:12;53.25;;;29.17;;
36423;SDS011;22458;45.328;9.514;2022-12-29T04:06:37;51.58;;;29.27;;
36423;SDS011;22458;45.328;9.514;2022-12-29T04:09:05;50.67;;;29.58;;
36423;SDS011;22458;45.328;9.514;2022-12-29T04:11:36;53.22;;;28.27;;
36423;SDS011;22458;45.328;9.514;2022-12-29T04:14:03;51.22;;;29.25;;
36423;SDS011;22458;45.328;9.514;2022-12-29T04:16:30;52.75;;;28.60;;
36423;SDS011;22458;45.328;9.514;2022-12-29T04:18:56;50.05;;;29.17;;
36423;SDS011;22458;45.328;9.514;2022-12-29T04:21:22;47.03;;;26.92;;
36423;SDS011;22458;45.328;9.514;2022-12-29T04:23:47;46.60;;;27.35;;
36423;SDS011;22458;45.328;9.514;2022-12-29T04:26:15;53.58;;;28.67;;
36423;SDS011;22458;45.328;9.514;2022-12-29T04:29:01;49.28;;;27.33;;
36423;SDS011;22458;45.328;9.514;2022-12-29T04:31:40;45.13;;;27.40;;
36423;SDS011;22458;45.328;9.514;2022-12-29T04:34:06;52.60;;;30.13;;
36423;SDS011;22458;45.328;9.514;2022-12-29T04:36:32;48.08;;;27.77;;
36423;SDS011;22458;45.328;9.514;2022-12-29T04:38:58;51.08;;;27.38;;
36423;SDS011;22458;45.328;9.514;2022-12-29T04:41:26;53.50;;;29.40;;
36423;SDS011;22458;45.328;9.514;2022-12-29T04:43:53;50.67;;;28.30;;
36423;SDS011;22458;45.328;9.514;2022-12-29T04:46:37;54.10;;;28.30;;
36423;SDS011;22458;45.328;9.514;2022-12-29T04:49:17;47.75;;;26.27;;
36423;SDS011;22458;45.328;9.514;2022-12-29T04:51:59;50.55;;;28.52;;
36423;SDS011;22458;45.328;9.514;2022-12-29T04:54:24;48.63;;;26.88;;
36423;SDS011;22458;45.328;9.514;2022-12-29T04:57:02;51.97;;;29.35;;
36423;SDS011;22458;45.328;9.514;2022-12-29T04:59:28;45.75;;;26.60;;
36423;SDS011;22458;45.328;9.514;2022-12-29T05:01:57;50.63;;;28.02;;
36423;SDS011;22458;45.328;9.514;2022-12-29T05:04:23;43.90;;;26.15;;
36423;SDS011;22458;45.328;9.514;2022-12-29T05:06:49;49.75;;;28.30;;
36423;SDS011;22458;45.328;9.514;2022-12-29T05:09:15;49.15;;;27.58;;
36423;SDS011;22458;45.328;9.514;2022-12-29T05:11:41;44.88;;;25.55;;
36423;SDS011;22458;45.328;9.514;2022-12-29T05:14:08;50.20;;;29.25;;
36423;SDS011;22458;45.328;9.514;2022-12-29T05:16:35;45.00;;;27.02;;
36423;SDS011;22458;45.328;9.514;2022-12-29T05:19:01;46.75;;;26.73;;
36423;SDS011;22458;45.328;9.514;2022-12-29T05:21:28;50.25;;;26.92;;
36423;SDS011;22458;45.328;9.514;2022-12-29T05:23:54;42.78;;;25.75;;
36423;SDS011;22458;45.328;9.514;2022-12-29T05:26:20;52.30;;;28.58;;
36423;SDS011;22458;45.328;9.514;2022-12-29T05:29:07;51.33;;;28.17;;
36423;SDS011;22458;45.328;9.514;2022-12-29T05:31:33;46.45;;;27.38;;
36423;SDS011;22458;45.328;9.514;2022-12-29T05:34:01;49.42;;;26.88;;
36423;SDS011;22458;45.328;9.514;2022-12-29T05:36:27;44.72;;;26.92;;
36423;SDS011;22458;45.328;9.514;2022-12-29T05:38:57;45.95;;;25.95;;
36423;SDS011;22458;45.328;9.514;2022-12-29T05:41:23;47.63;;;27.75;;
36423;SDS011;22458;45.328;9.514;2022-12-29T05:44:07;46.53;;;26.08;;
36423;SDS011;22458;45.328;9.514;2022-12-29T05:46:43;47.80;;;26.40;;
36423;SDS011;22458;45.328;9.514;2022-12-29T05:49:15;42.45;;;24.65;;
36423;SDS011;22458;45.328;9.514;2022-12-29T05:52:10;43.95;;;25.55;;
36423;SDS011;22458;45.328;9.514;2022-12-29T05:54:37;47.05;;;25.90;;
36423;SDS011;22458;45.328;9.514;2022-12-29T05:57:09;48.55;;;26.80;;
36423;SDS011;22458;45.328;9.514;2022-12-29T05:59:36;46.95;;;27.00;;
36423;SDS011;22458;45.328;9.514;2022-12-29T06:02:03;49.13;;;26.30;;
36423;SDS011;22458;45.328;9.514;2022-12-29T06:04:30;42.30;;;24.92;;
36423;SDS011;22458;45.328;9.514;2022-12-29T06:06:55;45.72;;;26.50;;
36423;SDS011;22458;45.328;9.514;2022-12-29T06:09:31;44.95;;;25.50;;
36423;SDS011;22458;45.328;9.514;2022-12-29T06:11:56;44.67;;;25.50;;
36423;SDS011;22458;45.328;9.514;2022-12-29T06:14:22;40.00;;;23.58;;
36423;SDS011;22458;45.328;9.514;2022-12-29T06:16:48;47.40;;;26.27;;
36423;SDS011;22458;45.328;9.514;2022-12-29T06:19:14;46.08;;;27.48;;
36423;SDS011;22458;45.328;9.514;2022-12-29T06:21:39;44.40;;;25.63;;
36423;SDS011;22458;45.328;9.514;2022-12-29T06:24:05;48.50;;;26.25;;
36423;SDS011;22458;45.328;9.514;2022-12-29T06:26:33;43.80;;;25.38;;
36423;SDS011;22458;45.328;9.514;2022-12-29T06:29:00;43.15;;;23.73;;
36423;SDS011;22458;45.328;9.514;2022-12-29T06:31:25;41.17;;;23.45;;
36423;SDS011;22458;45.328;9.514;2022-12-29T06:33:51;40.90;;;25.67;;
36423;SDS011;22458;45.328;9.514;2022-12-29T06:36:17;45.92;;;25.67;;
36423;SDS011;22458;45.328;9.514;2022-12-29T06:38:43;46.53;;;26.35;;
36423;SDS011;22458;45.328;9.514;2022-12-29T06:41:09;49.85;;;25.85;;
36423;SDS011;22458;45.328;9.514;2022-12-29T06:43:53;44.95;;;25.60;;
36423;SDS011;22458;45.328;9.514;2022-12-29T06:46:39;44.58;;;25.08;;
36423;SDS011;22458;45.328;9.514;2022-12-29T06:49:05;46.53;;;25.48;;
36423;SDS011;22458;45.328;9.514;2022-12-29T06:51:31;46.70;;;25.88;;
36423;SDS011;22458;45.328;9.514;2022-12-29T06:53:56;47.30;;;26.88;;
36423;SDS011;22458;45.328;9.514;2022-12-29T06:56:22;44.20;;;25.55;;
36423;SDS011;22458;45.328;9.514;2022-12-29T06:58:48;45.00;;;25.67;;
36423;SDS011;22458;45.328;9.514;2022-12-29T07:01:14;44.20;;;25.15;;
36423;SDS011;22458;45.328;9.514;2022-12-29T07:03:41;44.58;;;24.15;;
36423;SDS011;22458;45.328;9.514;2022-12-29T07:06:07;43.10;;;25.88;;
36423;SDS011;22458;45.328;9.514;2022-12-29T07:08:33;45.72;;;26.90;;
36423;SDS011;22458;45.328;9.514;2022-12-29T07:10:59;48.80;;;26.25;;
36423;SDS011;22458;45.328;9.514;2022-12-29T07:13:24;48.08;;;26.08;;
36423;SDS011;22458;45.328;9.514;2022-12-29T07:15:50;45.92;;;27.80;;
36423;SDS011;22458;45.328;9.514;2022-12-29T07:18:16;46.10;;;26.35;;
36423;SDS011;22458;45.328;9.514;2022-12-29T07:20:42;53.25;;;28.58;;
36423;SDS011;22458;45.328;9.514;2022-12-29T07:23:07;45.70;;;25.75;;
36423;SDS011;22458;45.328;9.514;2022-12-29T07:25:33;48.63;;;27.00;;
36423;SDS011;22458;45.328;9.514;2022-12-29T07:28:01;46.17;;;26.10;;
36423;SDS011;22458;45.328;9.514;2022-12-29T07:30:27;43.53;;;25.02;;
36423;SDS011;22458;45.328;9.514;2022-12-29T07:32:53;44.50;;;26.35;;
36423;SDS011;22458;45.328;9.514;2022-12-29T07:35:19;49.17;;;25.80;;
36423;SDS011;22458;45.328;9.514;2022-12-29T07:37:44;47.67;;;26.92;;
36423;SDS011;22458;45.328;9.514;2022-12-29T07:40:10;47.97;;;26.52;;
36423;SDS011;22458;45.328;9.514;2022-12-29T07:42:37;40.20;;;24.40;;
36423;SDS011;22458;45.328;9.514;2022-12-29T07:45:07;49.50;;;26.83;;
36423;SDS011;22458;45.328;9.514;2022-12-29T07:47:48;43.85;;;25.10;;
36423;SDS011;22458;45.328;9.514;2022-12-29T07:50:14;46.67;;;26.73;;
36423;SDS011;22458;45.328;9.514;2022-12-29T07:52:40;42.15;;;25.33;;
36423;SDS011;22458;45.328;9.514;2022-12-29T07:55:06;45.65;;;27.40;;
36423;SDS011;22458;45.328;9.514;2022-12-29T07:57:32;47.05;;;26.17;;
36423;SDS011;22458;45.328;9.514;2022-12-29T07:59:58;42.72;;;25.30;;
36423;SDS011;22458;45.328;9.514;2022-12-29T08:02:24;42.30;;;24.80;;
36423;SDS011;22458;45.328;9.514;2022-12-29T08:04:51;46.28;;;26.83;;
36423;SDS011;22458;45.328;9.514;2022-12-29T08:07:17;44.50;;;25.75;;
36423;SDS011;22458;45.328;9.514;2022-12-29T08:09:42;45.70;;;25.65;;
36423;SDS011;22458;45.328;9.514;2022-12-29T08:12:09;48.40;;;27.58;;
36423;SDS011;22458;45.328;9.514;2022-12-29T08:14:35;44.58;;;26.13;;
36423;SDS011;22458;45.328;9.514;2022-12-29T08:17:01;49.60;;;27.20;;
36423;SDS011;22458;45.328;9.514;2022-12-29T08:19:27;47.25;;;26.02;;
36423;SDS011;22458;45.328;9.514;2022-12-29T08:21:53;48.90;;;27.67;;
36423;SDS011;22458;45.328;9.514;2022-12-29T08:24:19;44.72;;;25.77;;
36423;SDS011;22458;45.328;9.514;2022-12-29T08:26:44;46.72;;;25.55;;
36423;SDS011;22458;45.328;9.514;2022-12-29T08:29:10;45.47;;;27.63;;
36423;SDS011;22458;45.328;9.514;2022-12-29T08:31:36;45.75;;;25.33;;
36423;SDS011;22458;45.328;9.514;2022-12-29T08:34:02;54.90;;;28.42;;
36423;SDS011;22458;45.328;9.514;2022-12-29T08:36:29;47.53;;;26.25;;
36423;SDS011;22458;45.328;9.514;2022-12-29T08:38:55;42.22;;;25.45;;
36423;SDS011;22458;45.328;9.514;2022-12-29T08:41:22;44.30;;;26.70;;
36423;SDS011;22458;45.328;9.514;2022-12-29T08:43:48;43.22;;;26.48;;
36423;SDS011;22458;45.328;9.514;2022-12-29T08:46:14;45.90;;;26.13;;
36423;SDS011;22458;45.328;9.514;2022-12-29T08:48:41;42.33;;;24.58;;
36423;SDS011;22458;45.328;9.514;2022-12-29T08:51:07;43.50;;;25.95;;
36423;SDS011;22458;45.328;9.514;2022-12-29T08:53:33;42.38;;;24.98;;
36423;SDS011;22458;45.328;9.514;2022-12-29T08:56:00;40.47;;;25.85;;
36423;SDS011;22458;45.328;9.514;2022-12-29T08:58:26;46.35;;;27.45;;
36423;SDS011;22458;45.328;9.514;2022-12-29T09:00:53;44.03;;;25.98;;
36423;SDS011;22458;45.328;9.514;2022-12-29T09:03:21;43.50;;;25.77;;
36423;SDS011;22458;45.328;9.514;2022-12-29T09:05:51;45.75;;;25.60;;
36423;SDS011;22458;45.328;9.514;2022-12-29T09:08:18;40.00;;;24.65;;
36423;SDS011;22458;45.328;9.514;2022-12-29T09:10:44;44.45;;;25.15;;
36423;SDS011;22458;45.328;9.514;2022-12-29T09:13:11;38.55;;;25.30;;
36423;SDS011;22458;45.328;9.514;2022-12-29T09:15:37;45.15;;;27.60;;
36423;SDS011;22458;45.328;9.514;2022-12-29T09:18:03;37.63;;;25.33;;
36423;SDS011;22458;45.328;9.514;2022-12-29T09:20:29;42.13;;;24.95;;
36423;SDS011;22458;45.328;9.514;2022-12-29T09:22:55;42.58;;;25.92;;
36423;SDS011;22458;45.328;9.514;2022-12-29T09:25:21;42.67;;;24.15;;
36423;SDS011;22458;45.328;9.514;2022-12-29T09:27:49;42.00;;;24.70;;
36423;SDS011;22458;45.328;9.514;2022-12-29T09:30:17;43.72;;;25.92;;
36423;SDS011;22458;45.328;9.514;2022-12-29T09:32:43;37.22;;;23.75;;
36423;SDS011;22458;45.328;9.514;2022-12-29T09:35:09;41.28;;;24.00;;
36423;SDS011;22458;45.328;9.514;2022-12-29T09:37:35;40.95;;;25.05;;
36423;SDS011;22458;45.328;9.514;2022-12-29T09:40:01;41.40;;;26.02;;
36423;SDS011;22458;45.328;9.514;2022-12-29T09:42:38;38.40;;;24.42;;
36423;SDS011;22458;45.328;9.514;2022-12-29T09:45:25;39.90;;;23.83;;
36423;SDS011;22458;45.328;9.514;2022-12-29T09:47:57;38.85;;;25.20;;
36423;SDS011;22458;45.328;9.514;2022-12-29T09:50:28;39.33;;;25.90;;
36423;SDS011;22458;45.328;9.514;2022-12-29T09:55:48;41.90;;;25.60;;
36423;SDS011;22458;45.328;9.514;2022-12-29T10:03:27;37.88;;;23.42;;
36423;SDS011;22458;45.328;9.514;2022-12-29T10:06:13;39.58;;;25.08;;
36423;SDS011;22458;45.328;9.514;2022-12-29T10:08:49;42.65;;;25.77;;
36423;SDS011;22458;45.328;9.514;2022-12-29T10:25:28;41.53;;;25.05;;
36423;SDS011;22458;45.328;9.514;2022-12-29T10:28:01;44.08;;;27.23;;
36423;SDS011;22458;45.328;9.514;2022-12-29T10:30:32;42.25;;;25.10;;
36423;SDS011;22458;45.328;9.514;2022-12-29T10:33:01;38.15;;;24.23;;
36423;SDS011;22458;45.328;9.514;2022-12-29T10:35:34;43.67;;;26.42;;
36423;SDS011;22458;45.328;9.514;2022-12-29T10:38:13;38.95;;;25.45;;
36423;SDS011;22458;45.328;9.514;2022-12-29T10:41:11;36.97;;;23.55;;
36423;SDS011;22458;45.328;9.514;2022-12-29T10:43:51;36.20;;;24.35;;
36423;SDS011;22458;45.328;9.514;2022-12-29T10:46:20;36.92;;;24.23;;
36423;SDS011;22458;45.328;9.514;2022-12-29T10:48:49;42.85;;;24.95;;
36423;SDS011;22458;45.328;9.514;2022-12-29T10:51:20;39.50;;;24.92;;
36423;SDS011;22458;45.328;9.514;2022-12-29T10:54:38;39.80;;;25.08;;
36423;SDS011;22458;45.328;9.514;2022-12-29T10:56:44;36.10;;;23.40;;
36423;SDS011;22458;45.328;9.514;2022-12-29T10:59:20;34.72;;;24.15;;
36423;SDS011;22458;45.328;9.514;2022-12-29T11:07:15;35.17;;;22.58;;
36423;SDS011;22458;45.328;9.514;2022-12-29T11:09:43;33.63;;;22.85;;
36423;SDS011;22458;45.328;9.514;2022-12-29T11:12:26;35.17;;;22.42;;
36423;SDS011;22458;45.328;9.514;2022-12-29T11:15:27;28.10;;;19.92;;
36423;SDS011;22458;45.328;9.514;2022-12-29T11:17:46;27.42;;;18.65;;
36423;SDS011;22458;45.328;9.514;2022-12-29T11:20:31;26.70;;;18.27;;
36423;SDS011;22458;45.328;9.514;2022-12-29T11:23:04;26.23;;;19.13;;
36423;SDS011;22458;45.328;9.514;2022-12-29T11:25:50;23.48;;;17.63;;
36423;SDS011;22458;45.328;9.514;2022-12-29T11:28:36;25.27;;;18.02;;
36423;SDS011;22458;45.328;9.514;2022-12-29T11:31:03;22.83;;;17.02;;
36423;SDS011;22458;45.328;9.514;2022-12-29T11:33:30;22.30;;;16.83;;
36423;SDS011;22458;45.328;9.514;2022-12-29T11:35:57;22.80;;;18.77;;
36423;SDS011;22458;45.328;9.514;2022-12-29T11:38:30;23.98;;;17.77;;
36423;SDS011;22458;45.328;9.514;2022-12-29T11:41:04;25.23;;;17.55;;
36423;SDS011;22458;45.328;9.514;2022-12-29T11:43:32;23.38;;;17.58;;
36423;SDS011;22458;45.328;9.514;2022-12-29T11:46:02;23.35;;;18.00;;
36423;SDS011;22458;45.328;9.514;2022-12-29T11:48:29;24.67;;;18.63;;
36423;SDS011;22458;45.328;9.514;2022-12-29T11:51:02;28.10;;;20.42;;
36423;SDS011;22458;45.328;9.514;2022-12-29T11:56:08;30.13;;;19.52;;
36423;SDS011;22458;45.328;9.514;2022-12-29T11:58:36;27.67;;;19.70;;
36423;SDS011;22458;45.328;9.514;2022-12-29T12:01:07;28.15;;;21.02;;
36423;SDS011;22458;45.328;9.514;2022-12-29T12:03:36;27.58;;;19.98;;
36423;SDS011;22458;45.328;9.514;2022-12-29T12:06:05;28.60;;;20.48;;
36423;SDS011;22458;45.328;9.514;2022-12-29T12:11:21;27.25;;;20.23;;
36423;SDS011;22458;45.328;9.514;2022-12-29T12:17:19;28.73;;;19.92;;
36423;SDS011;22458;45.328;9.514;2022-12-29T12:20:22;27.63;;;19.02;;
36423;SDS011;22458;45.328;9.514;2022-12-29T12:23:22;28.63;;;20.98;;
36423;SDS011;22458;45.328;9.514;2022-12-29T12:28:42;33.67;;;21.73;;
36423;SDS011;22458;45.328;9.514;2022-12-29T12:31:22;28.63;;;20.92;;
36423;SDS011;22458;45.328;9.514;2022-12-29T12:33:59;30.90;;;20.98;;
36423;SDS011;22458;45.328;9.514;2022-12-29T12:49:57;27.77;;;20.20;;
36423;SDS011;22458;45.328;9.514;2022-12-29T13:06:36;29.75;;;21.40;;
36423;SDS011;22458;45.328;9.514;2022-12-29T13:12:00;30.25;;;21.13;;
36423;SDS011;22458;45.328;9.514;2022-12-29T13:17:35;30.27;;;19.95;;
36423;SDS011;22458;45.328;9.514;2022-12-29T13:23:25;26.13;;;19.98;;
36423;SDS011;22458;45.328;9.514;2022-12-29T13:26:18;26.08;;;19.08;;
36423;SDS011;22458;45.328;9.514;2022-12-29T13:34:36;26.95;;;19.55;;
36423;SDS011;22458;45.328;9.514;2022-12-29T13:37:17;28.30;;;20.42;;
36423;SDS011;22458;45.328;9.514;2022-12-29T13:39:52;30.95;;;20.58;;
36423;SDS011;22458;45.328;9.514;2022-12-29T13:42:22;30.85;;;20.58;;
36423;SDS011;22458;45.328;9.514;2022-12-29T13:50:17;26.80;;;19.13;;
36423;SDS011;22458;45.328;9.514;2022-12-29T13:52:47;25.52;;;18.77;;
36423;SDS011;22458;45.328;9.514;2022-12-29T13:58:36;29.05;;;19.35;;
36423;SDS011;22458;45.328;9.514;2022-12-29T14:01:10;31.40;;;19.63;;
36423;SDS011;22458;45.328;9.514;2022-12-29T14:08:46;25.35;;;19.50;;
36423;SDS011;22458;45.328;9.514;2022-12-29T14:11:14;28.08;;;20.27;;
36423;SDS011;22458;45.328;9.514;2022-12-29T14:13:43;29.05;;;19.83;;
36423;SDS011;22458;45.328;9.514;2022-12-29T14:16:21;28.42;;;20.25;;
36423;SDS011;22458;45.328;9.514;2022-12-29T14:19:03;26.13;;;18.70;;
36423;SDS011;22458;45.328;9.514;2022-12-29T14:21:32;27.67;;;19.30;;
36423;SDS011;22458;45.328;9.514;2022-12-29T14:34:46;28.15;;;19.13;;
36423;SDS011;22458;45.328;9.514;2022-12-29T14:42:52;27.27;;;19.58;;
36423;SDS011;22458;45.328;9.514;2022-12-29T14:47:49;26.58;;;19.70;;
36423;SDS011;22458;45.328;9.514;2022-12-29T14:52:49;26.63;;;19.45;;
36423;SDS011;22458;45.328;9.514;2022-12-29T14:58:12;27.63;;;19.55;;
36423;SDS011;22458;45.328;9.514;2022-12-29T15:00:41;29.17;;;20.52;;
36423;SDS011;22458;45.328;9.514;2022-12-29T15:03:14;29.63;;;19.98;;
36423;SDS011;22458;45.328;9.514;2022-12-29T15:08:31;29.40;;;21.52;;
36423;SDS011;22458;45.328;9.514;2022-12-29T15:11:06;29.67;;;20.65;;
36423;SDS011;22458;45.328;9.514;2022-12-29T15:13:41;27.85;;;19.95;;
36423;SDS011;22458;45.328;9.514;2022-12-29T15:21:24;28.25;;;21.00;;
36423;SDS011;22458;45.328;9.514;2022-12-29T15:23:55;30.70;;;20.75;;
36423;SDS011;22458;45.328;9.514;2022-12-29T15:26:21;29.67;;;20.45;;
36423;SDS011;22458;45.328;9.514;2022-12-29T15:28:49;27.27;;;21.00;;
36423;SDS011;22458;45.328;9.514;2022-12-29T15:31:25;29.43;;;20.43;;
36423;SDS011;22458;45.328;9.514;2022-12-29T15:33:55;31.08;;;21.60;;
36423;SDS011;22458;45.328;9.514;2022-12-29T15:36:36;26.48;;;20.48;;
36423;SDS011;22458;45.328;9.514;2022-12-29T15:39:17;30.65;;;21.23;;
36423;SDS011;22458;45.328;9.514;2022-12-29T15:44:40;30.85;;;21.20;;
36423;SDS011;22458;45.328;9.514;2022-12-29T15:49:48;37.25;;;26.45;;
36423;SDS011;22458;45.328;9.514;2022-12-29T15:54:44;86.13;;;51.63;;
36423;SDS011;22458;45.328;9.514;2022-12-29T15:57:16;52.97;;;34.72;;
36423;SDS011;22458;45.328;9.514;2022-12-29T15:59:54;34.85;;;25.95;;
36423;SDS011;22458;45.328;9.514;2022-12-29T16:02:23;32.63;;;23.40;;
36423;SDS011;22458;45.328;9.514;2022-12-29T16:04:50;29.15;;;22.30;;
36423;SDS011;22458;45.328;9.514;2022-12-29T16:09:59;28.88;;;22.10;;
36423;SDS011;22458;45.328;9.514;2022-12-29T16:12:30;29.80;;;21.27;;
36423;SDS011;22458;45.328;9.514;2022-12-29T16:15:02;31.38;;;24.50;;
36423;SDS011;22458;45.328;9.514;2022-12-29T16:17:30;33.28;;;23.60;;
36423;SDS011;22458;45.328;9.514;2022-12-29T16:20:00;31.35;;;22.13;;
36423;SDS011;22458;45.328;9.514;2022-12-29T16:22:34;30.92;;;20.67;;
36423;SDS011;22458;45.328;9.514;2022-12-29T16:27:44;29.98;;;20.67;;
36423;SDS011;22458;45.328;9.514;2022-12-29T16:30:26;28.65;;;21.08;;
36423;SDS011;22458;45.328;9.514;2022-12-29T16:32:55;29.27;;;20.80;;
36423;SDS011;22458;45.328;9.514;2022-12-29T16:35:44;30.38;;;19.70;;
36423;SDS011;22458;45.328;9.514;2022-12-29T16:38:15;29.05;;;20.02;;
36423;SDS011;22458;45.328;9.514;2022-12-29T16:40:51;27.05;;;19.40;;
36423;SDS011;22458;45.328;9.514;2022-12-29T16:43:23;27.00;;;20.30;;
36423;SDS011;22458;45.328;9.514;2022-12-29T16:48:17;31.35;;;21.88;;
36423;SDS011;22458;45.328;9.514;2022-12-29T16:50:49;30.73;;;21.60;;
36423;SDS011;22458;45.328;9.514;2022-12-29T16:53:28;29.77;;;20.48;;
36423;SDS011;22458;45.328;9.514;2022-12-29T16:56:02;26.05;;;19.40;;
36423;SDS011;22458;45.328;9.514;2022-12-29T16:58:48;26.38;;;19.35;;
36423;SDS011;22458;45.328;9.514;2022-12-29T17:01:19;27.17;;;20.17;;
36423;SDS011;22458;45.328;9.514;2022-12-29T17:03:52;27.48;;;20.05;;
36423;SDS011;22458;45.328;9.514;2022-12-29T17:06:31;29.02;;;22.65;;
36423;SDS011;22458;45.328;9.514;2022-12-29T17:08:57;34.97;;;22.67;;
36423;SDS011;22458;45.328;9.514;2022-12-29T17:11:24;30.73;;;20.40;;
36423;SDS011;22458;45.328;9.514;2022-12-29T17:14:30;31.67;;;21.52;;
36423;SDS011;22458;45.328;9.514;2022-12-29T17:17:19;31.70;;;21.60;;
36423;SDS011;22458;45.328;9.514;2022-12-29T17:19:50;30.65;;;20.80;;
36423;SDS011;22458;45.328;9.514;2022-12-29T17:22:20;30.02;;;20.92;;
36423;SDS011;22458;45.328;9.514;2022-12-29T17:24:49;37.53;;;22.33;;
36423;SDS011;22458;45.328;9.514;2022-12-29T17:27:20;33.42;;;23.05;;
36423;SDS011;22458;45.328;9.514;2022-12-29T17:29:49;32.40;;;22.48;;
36423;SDS011;22458;45.328;9.514;2022-12-29T17:32:17;30.80;;;20.98;;
36423;SDS011;22458;45.328;9.514;2022-12-29T17:34:43;29.92;;;22.08;;
36423;SDS011;22458;45.328;9.514;2022-12-29T17:39:49;33.65;;;22.98;;
36423;SDS011;22458;45.328;9.514;2022-12-29T17:42:15;32.40;;;22.50;;
36423;SDS011;22458;45.328;9.514;2022-12-29T17:44:42;30.65;;;22.83;;
36423;SDS011;22458;45.328;9.514;2022-12-29T17:47:09;33.38;;;22.80;;
36423;SDS011;22458;45.328;9.514;2022-12-29T17:49:35;31.50;;;22.58;;
36423;SDS011;22458;45.328;9.514;2022-12-29T17:52:02;31.42;;;21.17;;
36423;SDS011;22458;45.328;9.514;2022-12-29T17:54:29;34.03;;;22.85;;